createdAt,value
2018-05-12T00:00:18.475Z,10.00
2018-05-12T00:02:46.757Z,11.63
2018-05-12T00:05:15.116Z,12.13
2018-05-12T00:07:43.427Z,11.00
2018-05-12T00:10:11.707Z,10.67
2018-05-12T00:12:40.841Z,10.10
2018-05-12T00:15:09.175Z,10.73
2018-05-12T00:17:37.471Z,11.53
2018-05-12T00:20:07.648Z,9.80
2018-05-12T00:22:35.953Z,11.10
2018-05-12T00:25:04.390Z,11.70
2018-05-12T00:27:32.704Z,10.27
2018-05-12T00:30:02.020Z,11.20
2018-05-12T00:32:31.077Z,12.80
2018-05-12T00:34:59.411Z,13.83
2018-05-12T00:37:28.520Z,10.83
2018-05-12T00:39:56.825Z,13.70
2018-05-12T00:42:25.145Z,10.27
2018-05-12T00:44:54.223Z,13.23
2018-05-12T00:47:22.567Z,11.77
2018-05-12T00:49:50.868Z,12.63
2018-05-12T00:52:19.197Z,9.67
2018-05-12T00:54:47.540Z,13.83
2018-05-12T00:57:15.828Z,11.33
2018-05-12T00:59:44.915Z,14.07
2018-05-12T01:02:13.238Z,12.67
2018-05-12T01:04:55.574Z,12.63
2018-05-12T01:07:23.908Z,12.27
2018-05-12T01:09:52.230Z,12.57
2018-05-12T01:12:20.494Z,12.67
2018-05-12T01:14:48.844Z,13.53
2018-05-12T01:17:17.126Z,13.03
2018-05-12T01:19:45.395Z,16.47
2018-05-12T01:22:13.725Z,13.63
2018-05-12T01:24:42.030Z,10.80
2018-05-12T01:27:11.091Z,12.17
2018-05-12T01:29:39.393Z,11.17
2018-05-12T01:32:07.690Z,11.73
2018-05-12T01:34:42.810Z,13.67
2018-05-12T01:37:11.141Z,14.93
2018-05-12T01:39:39.420Z,12.50
2018-05-12T01:42:07.713Z,12.90
2018-05-12T01:44:36.044Z,12.73
2018-05-12T01:47:05.167Z,15.33
2018-05-12T01:49:33.492Z,11.57
2018-05-12T01:52:01.835Z,10.37
2018-05-12T01:54:30.228Z,11.87
2018-05-12T01:56:58.525Z,11.77
2018-05-12T01:59:26.888Z,13.53
2018-05-12T02:01:55.208Z,12.17
2018-05-12T02:04:24.277Z,12.47
2018-05-12T02:06:52.632Z,12.83
2018-05-12T02:09:20.914Z,12.33
2018-05-12T02:11:49.253Z,11.97
2018-05-12T02:14:17.555Z,12.40
2018-05-12T02:16:45.896Z,12.10
2018-05-12T02:19:14.211Z,13.13
2018-05-12T02:21:42.550Z,14.47
2018-05-12T02:24:11.612Z,14.83
2018-05-12T02:26:39.910Z,11.90
2018-05-12T02:29:08.972Z,13.77
2018-05-12T02:31:37.273Z,15.53
2018-05-12T02:34:06.355Z,11.50
2018-05-12T02:36:34.717Z,14.00
2018-05-12T02:39:02.997Z,13.47
2018-05-12T02:41:31.316Z,14.27
2018-05-12T02:44:00.351Z,13.87
2018-05-12T02:46:28.659Z,12.03
2018-05-12T02:48:56.957Z,16.17
2018-05-12T02:51:26.054Z,11.90
2018-05-12T02:53:55.164Z,15.03
2018-05-12T02:56:23.527Z,15.23
2018-05-12T02:58:52.593Z,14.07
2018-05-12T03:01:20.964Z,13.40
2018-05-12T03:03:49.295Z,15.97
2018-05-12T03:06:17.621Z,12.57
2018-05-12T03:08:45.896Z,13.23
2018-05-12T03:11:14.196Z,12.80
2018-05-12T03:13:42.497Z,11.47
2018-05-12T03:16:11.591Z,16.37
2018-05-12T03:18:40.673Z,11.07
2018-05-12T03:21:09.723Z,13.67
2018-05-12T03:23:38.076Z,12.07
2018-05-12T03:26:06.423Z,13.57
2018-05-12T03:28:35.462Z,13.80
2018-05-12T03:31:04.616Z,12.53
2018-05-12T03:33:33.655Z,12.47
2018-05-12T03:36:01.964Z,12.87
2018-05-12T03:38:30.273Z,13.93
2018-05-12T03:40:59.310Z,13.57
2018-05-12T03:43:27.615Z,12.83
2018-05-12T03:45:55.948Z,13.57
2018-05-12T03:48:24.280Z,14.77
2018-05-12T03:50:52.635Z,15.13
2018-05-12T03:53:20.982Z,12.07
2018-05-12T03:55:49.253Z,15.33
2018-05-12T03:58:17.575Z,12.77
2018-05-12T04:00:45.890Z,13.97
2018-05-12T04:03:15.005Z,11.37
2018-05-12T04:06:01.131Z,14.80
2018-05-12T04:12:00.119Z,11.60
2018-05-12T04:14:28.456Z,13.80
2018-05-12T04:16:56.810Z,16.30
2018-05-12T04:19:25.871Z,13.20
2018-05-12T04:21:54.195Z,13.03
2018-05-12T04:24:22.500Z,11.63
2018-05-12T04:26:50.864Z,13.80
2018-05-12T04:29:19.163Z,12.13
2018-05-12T04:31:47.480Z,13.13
2018-05-12T04:34:15.808Z,13.90
2018-05-12T04:36:44.149Z,12.00
2018-05-12T04:39:13.216Z,13.73
2018-05-12T04:41:41.575Z,13.53
2018-05-12T04:46:44.368Z,14.90
2018-05-12T04:49:12.715Z,14.13
2018-05-12T04:51:41.115Z,13.57
2018-05-12T04:54:10.180Z,11.43
2018-05-12T04:56:38.474Z,14.60
2018-05-12T04:59:06.813Z,12.27
2018-05-12T05:01:35.144Z,13.63
2018-05-12T05:04:03.477Z,15.77
2018-05-12T05:06:31.796Z,13.33
2018-05-12T05:09:00.117Z,15.93
2018-05-12T05:11:28.394Z,13.37
2018-05-12T05:13:56.810Z,16.30
2018-05-12T05:16:25.113Z,14.83
2018-05-12T05:18:53.398Z,15.77
2018-05-12T05:21:21.645Z,14.30
2018-05-12T05:23:49.960Z,13.80
2018-05-12T05:26:18.262Z,16.90
2018-05-12T05:28:46.519Z,15.77
2018-05-12T05:31:14.788Z,14.23
2018-05-12T05:33:43.059Z,15.60
2018-05-12T05:36:11.397Z,12.07
2018-05-12T05:38:39.724Z,18.23
2018-05-12T05:41:08.015Z,13.83
2018-05-12T05:43:36.285Z,14.33
2018-05-12T05:46:04.649Z,13.97
2018-05-12T05:48:32.948Z,14.10
2018-05-12T05:51:01.194Z,17.23
2018-05-12T05:53:29.434Z,15.10
2018-05-12T05:55:58.492Z,13.23
2018-05-12T05:58:26.781Z,15.93
2018-05-12T06:00:55.016Z,14.70
2018-05-12T06:03:24.548Z,12.87
2018-05-12T06:05:52.807Z,18.33
2018-05-12T06:08:21.136Z,15.27
2018-05-12T06:10:49.445Z,13.37
2018-05-12T06:13:18.138Z,13.17
2018-05-12T06:15:46.601Z,14.23
2018-05-12T06:18:14.985Z,14.00
2018-05-12T06:20:43.953Z,13.93
2018-05-12T06:23:12.248Z,14.97
2018-05-12T06:25:40.493Z,13.63
2018-05-12T06:28:09.681Z,13.70
2018-05-12T06:30:38.063Z,11.93
2018-05-12T06:33:06.421Z,12.00
2018-05-12T06:35:53.004Z,11.13
2018-05-12T06:38:22.219Z,12.90
2018-05-12T06:40:50.590Z,14.53
2018-05-12T06:43:18.943Z,11.13
2018-05-12T06:45:47.317Z,11.73
2018-05-12T06:48:15.732Z,13.00
2018-05-12T06:50:44.134Z,13.13
2018-05-12T06:55:46.972Z,11.87
2018-05-12T06:58:15.428Z,15.20
2018-05-12T07:00:43.806Z,12.93
2018-05-12T07:03:12.129Z,10.73
2018-05-12T07:05:40.535Z,9.87
2018-05-12T07:08:10.077Z,9.90
2018-05-12T07:10:39.196Z,10.20
2018-05-12T07:13:07.520Z,10.20
2018-05-12T07:15:35.802Z,10.70
2018-05-12T07:18:04.088Z,10.40
2018-05-12T07:20:32.356Z,11.73
2018-05-12T07:23:00.629Z,13.60
2018-05-12T07:25:28.938Z,10.57
2018-05-12T07:27:57.956Z,10.57
2018-05-12T07:30:27.802Z,11.70
2018-05-12T07:32:56.166Z,13.80
2018-05-12T07:35:24.692Z,12.30
2018-05-12T07:37:53.192Z,11.83
2018-05-12T07:40:24.808Z,13.70
2018-05-12T07:42:53.106Z,12.57
2018-05-12T07:45:22.210Z,13.27
2018-05-12T07:47:50.590Z,13.27
2018-05-12T07:53:18.990Z,12.13
2018-05-12T07:55:48.670Z,12.93
2018-05-12T07:58:17.916Z,11.90
2018-05-12T08:00:51.175Z,14.80
2018-05-12T08:04:28.344Z,15.97
2018-05-12T08:10:59.475Z,11.90
2018-05-12T08:13:27.832Z,16.10
2018-05-12T08:15:56.085Z,12.50
2018-05-12T08:18:24.354Z,12.40
2018-05-12T08:20:52.882Z,13.23
2018-05-12T08:23:21.250Z,11.63
2018-05-12T08:25:50.281Z,11.43
2018-05-12T08:28:18.537Z,13.03
2018-05-12T08:30:46.819Z,13.43
2018-05-12T08:33:15.113Z,14.30
2018-05-12T08:35:43.369Z,12.30
2018-05-12T08:38:11.618Z,13.50
2018-05-12T08:40:39.887Z,13.88
2018-05-12T08:43:08.133Z,11.10
2018-05-12T08:45:36.395Z,10.65
2018-05-12T08:48:04.655Z,12.90
2018-05-12T08:50:32.909Z,13.23
2018-05-12T08:53:01.938Z,10.70
2018-05-12T08:55:30.220Z,8.07
2018-05-12T08:57:58.486Z,7.68
2018-05-12T09:00:26.736Z,8.23
2018-05-12T09:02:54.969Z,8.93
2018-05-12T09:05:23.283Z,9.07
2018-05-12T09:07:51.793Z,10.55
2018-05-12T09:10:20.819Z,10.75
2018-05-12T09:12:49.183Z,11.65
2018-05-12T09:15:18.907Z,8.48
2018-05-12T09:17:47.317Z,8.95
2018-05-12T09:20:15.678Z,9.43
2018-05-12T09:22:44.048Z,10.02
2018-05-12T09:25:12.372Z,7.35
2018-05-12T09:27:40.702Z,10.25
2018-05-12T09:30:09.020Z,9.10
2018-05-12T09:32:38.076Z,8.13
2018-05-12T09:35:06.387Z,8.32
2018-05-12T09:37:35.475Z,9.00
2018-05-12T09:40:04.621Z,8.60
2018-05-12T09:42:32.926Z,7.93
2018-05-12T09:45:02.172Z,7.32
2018-05-12T09:47:30.584Z,7.70
2018-05-12T09:49:58.893Z,7.55
2018-05-12T09:52:27.293Z,7.75
2018-05-12T09:54:55.643Z,6.95
2018-05-12T09:57:23.995Z,13.80
2018-05-12T09:59:52.374Z,14.02
2018-05-12T10:02:21.397Z,16.37
2018-05-12T10:04:49.738Z,19.65
2018-05-12T10:07:18.103Z,18.58
2018-05-12T10:09:46.509Z,8.80
2018-05-12T10:12:14.878Z,6.35
2018-05-12T10:14:43.278Z,7.00
2018-05-12T10:17:11.733Z,9.50
2018-05-12T10:19:40.101Z,5.90
2018-05-12T10:22:08.454Z,7.37
2018-05-12T10:24:36.845Z,6.43
2018-05-12T10:27:05.226Z,5.72
2018-05-12T10:29:33.575Z,4.93
2018-05-12T10:32:01.984Z,5.35
2018-05-12T10:34:30.383Z,5.80
2018-05-12T10:36:58.738Z,6.82
2018-05-12T10:39:27.940Z,9.15
2018-05-12T10:41:57.077Z,7.25
2018-05-12T10:44:25.476Z,9.10
2018-05-12T10:46:53.962Z,6.45
2018-05-12T10:49:22.272Z,7.80
2018-05-12T10:51:50.622Z,8.70
2018-05-12T10:54:19.034Z,6.18
2018-05-12T10:56:47.559Z,6.25
2018-05-12T10:59:15.978Z,6.00
2018-05-12T11:01:45.080Z,7.93
2018-05-12T11:04:14.233Z,6.28
2018-05-12T11:06:42.634Z,6.12
2018-05-12T11:09:10.961Z,10.13
2018-05-12T11:11:39.377Z,9.98
2018-05-12T11:14:07.677Z,10.20
2018-05-12T11:16:36.058Z,7.78
2018-05-12T11:19:04.493Z,5.60
2018-05-12T11:21:32.970Z,4.97
2018-05-12T11:24:01.365Z,4.43
2018-05-12T11:26:30.413Z,4.97
2018-05-12T11:28:59.592Z,5.68
2018-05-12T11:31:28.536Z,5.75
2018-05-12T11:33:56.848Z,5.85
2018-05-12T11:36:26.029Z,6.18
2018-05-12T11:38:54.425Z,5.85
2018-05-12T11:41:22.768Z,6.30
2018-05-12T11:43:51.076Z,7.37
2018-05-12T11:46:19.425Z,8.38
2018-05-12T11:48:47.763Z,8.60
2018-05-12T11:51:17.161Z,9.48
2018-05-12T11:53:45.434Z,58.05
2018-05-12T11:56:13.821Z,43.80
2018-05-12T11:58:42.148Z,14.35
2018-05-12T12:01:10.524Z,15.80
2018-05-12T12:03:42.288Z,27.52
2018-05-12T12:06:10.542Z,8.82
2018-05-12T12:08:38.934Z,9.23
2018-05-12T12:11:07.270Z,7.10
2018-05-12T12:13:35.572Z,5.47
2018-05-12T12:16:04.616Z,8.63
2018-05-12T12:18:32.956Z,11.63
2018-05-12T12:21:01.409Z,8.57
2018-05-12T12:23:29.670Z,6.07
2018-05-12T12:25:58.022Z,6.45
2018-05-12T12:31:00.723Z,5.15
2018-05-12T12:33:29.144Z,6.62
2018-05-12T12:35:57.484Z,6.30
2018-05-12T12:38:25.858Z,6.45
2018-05-12T12:40:54.276Z,6.30
2018-05-12T12:43:22.665Z,6.03
2018-05-12T12:45:51.068Z,7.03
2018-05-12T12:48:19.450Z,6.15
2018-05-12T12:50:47.829Z,4.50
2018-05-12T12:53:16.123Z,6.18
2018-05-12T12:55:44.455Z,4.97
2018-05-12T12:58:13.565Z,6.22
2018-05-12T13:00:41.884Z,7.65
2018-05-12T13:03:10.195Z,4.93
2018-05-12T13:08:13.694Z,4.97
2018-05-12T13:10:42.045Z,5.55
2018-05-12T13:13:10.445Z,5.05
2018-05-12T13:15:38.799Z,7.25
2018-05-12T13:18:07.895Z,6.10
2018-05-12T13:20:36.255Z,6.82
2018-05-12T13:23:04.636Z,7.40
2018-05-12T13:25:33.061Z,7.47
2018-05-12T13:28:01.469Z,6.45
2018-05-12T13:30:29.828Z,4.95
2018-05-12T13:32:58.172Z,5.47
2018-05-12T13:35:26.604Z,4.53
2018-05-12T13:37:56.179Z,4.82
2018-05-12T13:40:24.512Z,6.20
2018-05-12T13:42:52.889Z,7.00
2018-05-12T13:45:21.200Z,5.03
2018-05-12T13:47:49.521Z,7.35
2018-05-12T13:50:17.798Z,4.55
2018-05-12T13:52:46.094Z,5.22
2018-05-12T13:55:15.130Z,4.40
2018-05-12T13:57:43.420Z,5.15
2018-05-12T14:00:11.721Z,4.70
2018-05-12T14:02:40.000Z,10.68
2018-05-12T14:05:08.270Z,4.90
2018-05-12T14:07:36.549Z,4.15
2018-05-12T14:10:04.887Z,5.07
2018-05-12T14:12:33.178Z,4.62
2018-05-12T14:15:01.484Z,5.25
2018-05-12T14:17:30.527Z,5.15
2018-05-12T14:19:58.834Z,5.80
2018-05-12T14:22:27.178Z,4.62
2018-05-12T14:24:56.349Z,4.75
2018-05-12T14:27:24.648Z,3.80
2018-05-12T14:29:52.994Z,4.60
2018-05-12T14:32:22.161Z,4.80
2018-05-12T14:34:50.462Z,4.35
2018-05-12T14:37:18.756Z,5.55
2018-05-12T14:39:47.804Z,8.45
2018-05-12T14:42:16.084Z,5.12
2018-05-12T14:44:44.393Z,4.37
2018-05-12T14:47:12.629Z,4.70
2018-05-12T14:49:40.889Z,8.32
2018-05-12T14:52:09.167Z,6.60
2018-05-12T14:54:37.549Z,5.47
2018-05-12T14:57:05.892Z,6.05
2018-05-12T14:59:34.948Z,8.50
2018-05-12T15:02:03.231Z,4.70
2018-05-12T15:04:31.597Z,5.40
2018-05-12T15:06:59.927Z,5.18
2018-05-12T15:12:03.416Z,4.28
2018-05-12T15:14:31.757Z,5.95
2018-05-12T15:17:01.774Z,4.60
2018-05-12T15:19:30.086Z,4.00
2018-05-12T15:21:58.444Z,4.95
2018-05-12T15:24:26.769Z,4.70
2018-05-12T15:26:55.121Z,5.03
2018-05-12T15:29:23.516Z,4.50
2018-05-12T15:31:51.848Z,5.18
2018-05-12T15:34:20.230Z,4.15
2018-05-12T15:36:48.574Z,7.53
2018-05-12T15:39:16.956Z,5.12
2018-05-12T15:41:45.278Z,7.70
2018-05-12T15:44:14.387Z,7.00
2018-05-12T15:46:43.578Z,6.03
2018-05-12T15:49:11.888Z,7.10
2018-05-12T15:51:41.105Z,5.57
2018-05-12T15:54:09.556Z,5.07
2018-05-12T15:56:38.804Z,6.75
2018-05-12T15:59:07.435Z,4.45
2018-05-12T16:01:35.895Z,11.05
2018-05-12T16:04:04.478Z,5.80
2018-05-12T16:06:39.549Z,6.18
2018-05-12T16:09:08.222Z,5.22
2018-05-12T16:11:37.350Z,5.12
2018-05-12T16:14:05.819Z,5.40
2018-05-12T16:16:34.221Z,5.47
2018-05-12T16:19:02.585Z,6.75
2018-05-12T16:21:31.032Z,4.47
2018-05-12T16:23:59.438Z,4.80
2018-05-12T16:26:29.176Z,5.93
2018-05-12T16:28:58.262Z,6.68
2018-05-12T16:31:26.784Z,5.97
2018-05-12T16:33:56.535Z,4.10
2018-05-12T16:36:24.994Z,4.30
2018-05-12T16:38:53.397Z,6.65
2018-05-12T16:41:22.121Z,5.45
2018-05-12T16:43:51.559Z,6.05
2018-05-12T16:46:20.016Z,5.32
2018-05-12T16:48:48.468Z,6.97
2018-05-12T16:51:16.851Z,5.15
2018-05-12T16:53:45.273Z,5.10
2018-05-12T16:56:13.727Z,5.05
2018-05-12T16:58:42.283Z,5.25
2018-05-12T17:01:10.590Z,6.20
2018-05-12T17:03:39.040Z,4.90
2018-05-12T17:06:07.529Z,4.50
2018-05-12T17:08:36.017Z,4.65
2018-05-12T17:11:06.034Z,4.40
2018-05-12T17:13:34.447Z,4.47
2018-05-12T17:16:02.821Z,6.07
2018-05-12T17:18:31.228Z,5.10
2018-05-12T17:20:59.673Z,4.35
2018-05-12T17:23:28.179Z,4.35
2018-05-12T17:25:56.593Z,5.87
2018-05-12T17:28:25.136Z,5.32
2018-05-12T17:30:53.494Z,4.70
2018-05-12T17:33:21.861Z,5.03
2018-05-12T17:35:50.276Z,4.87
2018-05-12T17:38:18.810Z,5.53
2018-05-12T17:40:47.200Z,5.45
2018-05-12T17:43:15.559Z,3.75
2018-05-12T17:45:43.941Z,5.10
2018-05-12T17:48:15.812Z,5.35
2018-05-12T17:50:44.922Z,4.40
2018-05-12T17:53:15.541Z,4.40
2018-05-12T17:55:50.286Z,4.70
2018-05-12T17:58:18.635Z,4.18
2018-05-12T18:00:47.091Z,6.05
2018-05-12T18:03:16.467Z,4.40
2018-05-12T18:05:44.908Z,5.30
2018-05-12T18:08:13.353Z,5.10
2018-05-12T18:10:42.986Z,6.70
2018-05-12T18:13:11.442Z,6.82
2018-05-12T18:15:39.859Z,6.28
2018-05-12T18:18:08.392Z,5.85
2018-05-12T18:20:37.744Z,5.80
2018-05-12T18:23:07.018Z,7.62
2018-05-12T18:25:36.150Z,6.15
2018-05-12T18:28:04.630Z,8.32
2018-05-12T18:30:33.742Z,7.80
2018-05-12T18:33:03.017Z,6.15
2018-05-12T18:35:31.408Z,6.00
2018-05-12T18:37:59.862Z,5.90
2018-05-12T18:40:28.212Z,5.47
2018-05-12T18:42:56.569Z,7.22
2018-05-12T18:45:24.954Z,6.40
2018-05-12T18:47:53.277Z,7.68
2018-05-12T18:50:22.378Z,9.35
2018-05-12T18:52:50.812Z,8.13
2018-05-12T18:55:19.145Z,9.02
2018-05-12T18:57:47.543Z,10.10
2018-05-12T19:00:15.943Z,9.52
2018-05-12T19:02:44.352Z,9.45
2018-05-12T19:05:12.731Z,9.75
2018-05-12T19:07:41.014Z,10.63
2018-05-12T19:10:09.394Z,12.48
2018-05-12T19:12:38.541Z,10.57
2018-05-12T19:15:06.954Z,11.25
2018-05-12T19:17:35.308Z,15.45
2018-05-12T19:20:03.667Z,11.10
2018-05-12T19:22:32.071Z,12.40
2018-05-12T19:25:00.357Z,11.48
2018-05-12T19:27:28.723Z,14.90
2018-05-12T19:29:57.090Z,12.77
2018-05-12T19:32:25.377Z,12.65
2018-05-12T19:34:53.644Z,13.25
2018-05-12T19:37:21.923Z,13.15
2018-05-12T19:39:50.186Z,13.77
2018-05-12T19:42:18.513Z,14.70
2018-05-12T19:44:47.405Z,24.23
2018-05-12T19:47:15.773Z,16.67
2018-05-12T19:49:44.125Z,16.35
2018-05-12T19:52:12.560Z,16.37
2018-05-12T19:54:41.034Z,16.12
2018-05-12T19:57:09.612Z,17.62
2018-05-12T19:59:38.020Z,16.52
2018-05-12T20:02:07.580Z,16.25
2018-05-12T20:07:21.539Z,18.97
2018-05-12T20:13:05.236Z,21.70
2018-05-12T20:15:33.739Z,20.87
2018-05-12T20:18:02.048Z,20.60
2018-05-12T20:20:31.056Z,19.40
2018-05-12T20:22:59.371Z,20.20
2018-05-12T20:25:27.650Z,20.47
2018-05-12T20:27:56.005Z,19.73
2018-05-12T20:30:24.353Z,21.17
2018-05-12T20:32:55.949Z,23.47
2018-05-12T20:35:24.308Z,21.60
2018-05-12T20:37:52.773Z,19.43
2018-05-12T20:40:21.847Z,20.93
2018-05-12T20:42:50.149Z,19.30
2018-05-12T20:45:19.191Z,20.57
2018-05-12T20:47:47.496Z,23.30
2018-05-12T20:50:16.980Z,21.37
2018-05-12T20:52:45.996Z,20.80
2018-05-12T20:55:15.187Z,20.30
2018-05-12T20:57:44.577Z,24.90
2018-05-12T21:00:12.885Z,24.33
2018-05-12T21:02:41.974Z,23.63
2018-05-12T21:05:11.037Z,23.40
2018-05-12T21:07:39.347Z,22.03
2018-05-12T21:10:08.385Z,24.17
2018-05-12T21:12:36.653Z,22.93
2018-05-12T21:15:04.901Z,23.07
2018-05-12T21:17:33.920Z,22.10
2018-05-12T21:20:02.235Z,23.53
2018-05-12T21:22:31.303Z,23.23
2018-05-12T21:24:59.594Z,22.67
2018-05-12T21:27:27.922Z,25.10
2018-05-12T21:29:56.963Z,24.37
2018-05-12T21:32:25.269Z,27.33
2018-05-12T21:34:53.540Z,27.90
2018-05-12T21:37:21.800Z,25.50
2018-05-12T21:39:50.040Z,23.63
2018-05-12T21:42:18.344Z,25.33
2018-05-12T21:44:46.666Z,24.90
2018-05-12T21:47:14.954Z,24.77
2018-05-12T21:49:44.027Z,28.17
2018-05-12T21:52:12.317Z,31.03
2018-05-12T21:54:40.577Z,26.30
2018-05-12T21:57:08.867Z,25.80
2018-05-12T21:59:37.138Z,25.97
2018-05-12T22:02:05.408Z,25.27
2018-05-12T22:04:34.446Z,33.27
2018-05-12T22:07:02.716Z,27.40
2018-05-12T22:09:31.030Z,26.30
2018-05-12T22:11:59.296Z,29.87
2018-05-12T22:14:27.599Z,26.53
2018-05-12T22:16:56.307Z,26.93
2018-05-12T22:19:24.759Z,28.67
2018-05-12T22:21:53.099Z,28.80
2018-05-12T22:24:21.441Z,27.60
2018-05-12T22:26:49.972Z,28.83
2018-05-12T22:29:18.849Z,26.83
2018-05-12T22:31:47.166Z,26.77
2018-05-12T22:34:15.480Z,30.43
2018-05-12T22:36:44.538Z,34.63
2018-05-12T22:39:12.841Z,28.40
2018-05-12T22:41:41.086Z,28.40
2018-05-12T22:44:09.597Z,29.67
2018-05-12T22:46:37.921Z,29.33
2018-05-12T22:49:06.172Z,29.00
2018-05-12T22:51:35.277Z,30.80
2018-05-12T22:54:04.361Z,28.37
2018-05-12T22:56:33.439Z,29.37
2018-05-12T22:59:02.436Z,30.43
2018-05-12T23:01:30.901Z,29.23
2018-05-12T23:04:00.368Z,29.23
2018-05-12T23:06:28.682Z,30.80
2018-05-12T23:08:56.960Z,32.90
2018-05-12T23:11:25.959Z,31.00
2018-05-12T23:13:54.862Z,34.50
2018-05-12T23:16:23.271Z,29.77
2018-05-12T23:18:52.312Z,33.40
2018-05-12T23:21:20.555Z,32.57
2018-05-12T23:23:48.826Z,30.30
2018-05-12T23:26:17.099Z,30.93
2018-05-12T23:28:45.511Z,30.80
2018-05-12T23:31:13.830Z,31.10
2018-05-12T23:33:42.127Z,38.10
2018-05-12T23:36:11.202Z,36.60
2018-05-12T23:38:39.484Z,33.10
2018-05-12T23:41:08.510Z,30.63
2018-05-12T23:43:36.759Z,27.40
2018-05-12T23:46:05.890Z,31.90
2018-05-12T23:48:34.141Z,29.30
2018-05-12T23:51:23.537Z,31.63
2018-05-12T23:53:51.807Z,29.37
2018-05-12T23:56:20.133Z,32.80
2018-05-12T23:58:48.439Z,30.67
